createdAt,value
2023-08-25T00:01:40.014Z,22.63
2023-08-25T00:04:06.852Z,22.61
2023-08-25T00:06:33.634Z,22.50
2023-08-25T00:09:00.432Z,22.43
2023-08-25T00:11:27.231Z,22.51
2023-08-25T00:13:54.017Z,22.52
2023-08-25T00:16:20.851Z,22.57
2023-08-25T00:18:48.914Z,22.55
2023-08-25T00:21:16.008Z,22.62
2023-08-25T00:23:42.817Z,22.61
2023-08-25T00:26:09.584Z,22.54
2023-08-25T00:28:36.728Z,22.50
2023-08-25T00:31:03.817Z,22.47
2023-08-25T00:33:30.733Z,22.39
2023-08-25T00:35:57.590Z,22.35
2023-08-25T00:38:29.393Z,22.41
2023-08-25T00:41:00.238Z,22.51
2023-08-25T00:43:27.910Z,22.65
2023-08-25T00:45:54.833Z,22.77
2023-08-25T00:48:21.707Z,22.87
2023-08-25T00:50:49.545Z,23.01
2023-08-25T00:53:16.455Z,23.04
2023-08-25T00:55:43.329Z,23.14
2023-08-25T00:58:10.763Z,23.27
2023-08-25T01:00:38.107Z,23.23
2023-08-25T01:03:05.416Z,23.25
2023-08-25T01:05:32.358Z,23.26
2023-08-25T01:08:00.026Z,23.29
2023-08-25T01:10:46.147Z,23.30
2023-08-25T01:13:21.346Z,23.32
2023-08-25T01:15:53.816Z,23.35
2023-08-25T01:18:26.380Z,23.44
2023-08-25T01:20:55.973Z,23.54
2023-08-25T01:23:31.761Z,23.63
2023-08-25T01:25:59.445Z,23.72
2023-08-25T01:28:26.872Z,23.72
2023-08-25T01:33:25.466Z,23.92
2023-08-25T01:36:07.261Z,23.87
2023-08-25T01:38:41.958Z,23.88
2023-08-25T01:41:20.651Z,23.84
2023-08-25T01:43:52.368Z,23.78
2023-08-25T01:46:20.539Z,23.74
2023-08-25T01:48:51.069Z,23.72
2023-08-25T01:51:18.241Z,23.76
2023-08-25T01:53:45.426Z,23.72
2023-08-25T01:56:14.046Z,23.67
2023-08-25T01:58:40.844Z,23.55
2023-08-25T02:01:07.674Z,23.44
2023-08-25T02:03:34.502Z,23.41
2023-08-25T02:06:01.382Z,23.41
2023-08-25T02:08:28.226Z,23.42
2023-08-25T02:10:55.130Z,23.38
2023-08-25T02:13:23.959Z,23.42
2023-08-25T02:15:53.153Z,23.44
2023-08-25T02:18:20.002Z,23.38
2023-08-25T02:20:46.967Z,23.40
2023-08-25T02:23:14.061Z,23.41
2023-08-25T02:25:42.478Z,23.21
2023-08-25T02:28:10.027Z,23.11
2023-08-25T02:30:36.821Z,23.04
2023-08-25T02:33:03.926Z,22.87
2023-08-25T02:35:30.695Z,22.84
2023-08-25T02:38:05.544Z,22.87
2023-08-25T02:40:33.939Z,22.81
2023-08-25T02:43:02.656Z,22.81
2023-08-25T02:45:29.720Z,22.86
2023-08-25T02:47:58.046Z,22.79
2023-08-25T02:50:25.578Z,22.75
2023-08-25T02:52:53.180Z,22.67
2023-08-25T02:55:22.631Z,22.58
2023-08-25T02:57:51.538Z,22.52
2023-08-25T03:00:27.250Z,22.46
2023-08-25T03:02:55.879Z,22.41
2023-08-25T03:05:23.979Z,22.40
2023-08-25T03:07:55.199Z,22.39
2023-08-25T03:10:24.145Z,22.42
2023-08-25T03:12:52.511Z,22.31
2023-08-25T03:15:19.434Z,22.28
2023-08-25T03:17:46.473Z,22.24
2023-08-25T03:20:13.254Z,22.23
2023-08-25T03:22:40.238Z,22.16
2023-08-25T03:25:07.878Z,22.09
2023-08-25T03:27:36.055Z,22.03
2023-08-25T03:30:03.613Z,22.00
2023-08-25T03:32:31.693Z,22.04
2023-08-25T03:34:58.570Z,22.07
2023-08-25T03:37:25.786Z,22.05
2023-08-25T03:39:53.396Z,22.05
2023-08-25T03:42:20.863Z,22.04
2023-08-25T03:44:49.331Z,22.03
2023-08-25T03:47:16.213Z,21.99
2023-08-25T03:49:43.025Z,21.97
2023-08-25T03:52:10.157Z,21.91
2023-08-25T03:54:37.077Z,21.82
2023-08-25T03:57:08.031Z,21.77
2023-08-25T03:59:35.088Z,21.89
2023-08-25T04:02:05.040Z,22.13
2023-08-25T04:04:33.203Z,21.89
2023-08-25T04:07:00.291Z,21.85
2023-08-25T04:09:27.999Z,21.83
2023-08-25T04:11:58.250Z,21.83
2023-08-25T04:14:25.358Z,21.86
2023-08-25T04:16:52.381Z,21.91
2023-08-25T04:19:22.547Z,21.87
2023-08-25T04:21:50.782Z,21.78
2023-08-25T04:24:18.053Z,21.86
2023-08-25T04:26:45.163Z,21.88
2023-08-25T04:29:12.668Z,21.97
2023-08-25T04:31:41.150Z,22.01
2023-08-25T04:34:09.479Z,21.91
2023-08-25T04:36:38.501Z,21.89
2023-08-25T04:39:05.342Z,21.91
2023-08-25T04:41:32.961Z,21.85
2023-08-25T04:44:00.348Z,21.88
2023-08-25T04:46:29.659Z,21.90
2023-08-25T04:48:58.072Z,21.92
2023-08-25T04:51:25.613Z,21.86
2023-08-25T04:53:52.830Z,21.93
2023-08-25T04:56:20.241Z,22.01
2023-08-25T04:58:47.143Z,22.02
2023-08-25T05:01:15.467Z,22.08
2023-08-25T05:03:43.826Z,22.07
2023-08-25T05:06:12.568Z,22.09
2023-08-25T05:08:39.458Z,22.16
2023-08-25T05:11:07.357Z,22.14
2023-08-25T05:13:34.199Z,22.22
2023-08-25T05:16:03.440Z,22.20
2023-08-25T05:18:50.501Z,22.25
2023-08-25T05:21:17.366Z,22.21
2023-08-25T05:23:48.599Z,22.30
2023-08-25T05:26:16.797Z,22.28
2023-08-25T05:28:52.854Z,22.34
2023-08-25T05:31:19.806Z,22.38
2023-08-25T05:34:05.842Z,22.44
2023-08-25T05:36:35.482Z,22.54
2023-08-25T05:39:03.580Z,22.59
2023-08-25T05:41:30.545Z,22.71
2023-08-25T05:43:57.588Z,22.78
2023-08-25T05:46:24.423Z,22.89
2023-08-25T05:48:51.328Z,23.02
2023-08-25T05:51:18.219Z,23.13
2023-08-25T05:53:45.775Z,23.26
2023-08-25T05:56:12.586Z,23.38
2023-08-25T05:58:39.337Z,23.49
2023-08-25T06:01:06.162Z,23.61
2023-08-25T06:03:33.463Z,23.71
2023-08-25T06:06:00.307Z,23.89
2023-08-25T06:08:27.569Z,23.95
2023-08-25T06:10:54.993Z,24.07
2023-08-25T06:13:21.856Z,24.15
2023-08-25T06:15:50.144Z,24.23
2023-08-25T06:18:17.524Z,24.32
2023-08-25T06:20:44.409Z,24.33
2023-08-25T06:23:12.985Z,24.37
2023-08-25T06:25:39.845Z,24.45
2023-08-25T06:28:06.907Z,24.54
2023-08-25T06:30:37.197Z,24.50
2023-08-25T06:33:04.058Z,24.58
2023-08-25T06:35:30.863Z,24.71
2023-08-25T06:37:57.664Z,24.88
2023-08-25T06:40:24.552Z,24.95
2023-08-25T06:42:51.382Z,24.94
2023-08-25T06:45:18.211Z,24.81
2023-08-25T06:47:47.004Z,24.73
2023-08-25T06:50:15.626Z,24.77
2023-08-25T06:52:42.542Z,24.75
2023-08-25T06:55:09.501Z,25.12
2023-08-25T06:57:36.726Z,26.58
2023-08-25T07:00:06.358Z,27.39
2023-08-25T07:02:33.385Z,27.57
2023-08-25T07:05:00.293Z,28.78
2023-08-25T07:07:27.710Z,29.38
2023-08-25T07:09:55.231Z,29.92
2023-08-25T07:12:22.044Z,30.33
2023-08-25T07:14:49.072Z,31.23
2023-08-25T07:17:15.828Z,31.73
2023-08-25T07:19:42.643Z,32.17
2023-08-25T07:22:09.841Z,32.28
2023-08-25T07:24:36.737Z,32.22
2023-08-25T07:27:03.586Z,32.56
2023-08-25T07:29:30.479Z,32.73
2023-08-25T07:31:58.012Z,32.44
2023-08-25T07:34:24.864Z,32.30
2023-08-25T07:36:53.902Z,33.19
2023-08-25T07:39:21.019Z,33.31
2023-08-25T07:41:47.794Z,33.24
2023-08-25T07:44:14.949Z,33.42
2023-08-25T07:46:41.838Z,34.12
2023-08-25T07:49:11.410Z,34.46
2023-08-25T07:51:40.765Z,34.41
2023-08-25T07:54:08.651Z,34.50
2023-08-25T07:56:35.500Z,34.35
2023-08-25T07:59:02.400Z,35.15
2023-08-25T08:01:29.312Z,35.96
2023-08-25T08:03:56.175Z,35.91
2023-08-25T08:06:22.972Z,35.18
2023-08-25T08:08:49.901Z,33.89
2023-08-25T08:11:16.716Z,33.43
2023-08-25T08:13:43.644Z,33.22
2023-08-25T08:16:10.514Z,33.65
2023-08-25T08:18:37.444Z,33.79
2023-08-25T08:21:04.297Z,34.67
2023-08-25T08:23:31.100Z,33.68
2023-08-25T08:25:59.608Z,33.75
2023-08-25T08:28:26.621Z,32.82
2023-08-25T08:30:53.476Z,32.69
2023-08-25T08:33:20.362Z,32.69
2023-08-25T08:35:47.286Z,32.53
2023-08-25T08:38:14.130Z,32.10
2023-08-25T08:40:41.836Z,32.37
2023-08-25T08:43:15.988Z,33.65
2023-08-25T08:45:44.483Z,34.15
2023-08-25T08:48:13.637Z,33.69
2023-08-25T08:50:40.923Z,34.63
2023-08-25T08:53:09.325Z,35.03
2023-08-25T08:55:36.727Z,34.03
2023-08-25T08:58:05.244Z,34.66
2023-08-25T09:00:32.924Z,34.84
2023-08-25T09:03:06.052Z,35.25
2023-08-25T09:05:35.765Z,35.67
2023-08-25T09:08:08.790Z,35.36
2023-08-25T09:10:35.758Z,35.72
2023-08-25T09:13:03.318Z,36.16
2023-08-25T09:15:34.338Z,35.99
2023-08-25T09:18:08.995Z,36.55
2023-08-25T09:20:40.085Z,36.80
2023-08-25T09:23:09.308Z,36.81
2023-08-25T09:25:36.427Z,36.49
2023-08-25T09:28:04.951Z,36.57
2023-08-25T09:30:36.748Z,36.66
2023-08-25T09:33:09.584Z,36.58
2023-08-25T09:35:37.141Z,36.92
2023-08-25T09:38:04.468Z,37.54
2023-08-25T09:40:32.501Z,37.99
2023-08-25T09:43:05.238Z,37.98
2023-08-25T09:45:34.251Z,37.61
2023-08-25T09:48:17.674Z,37.84
2023-08-25T09:50:45.718Z,37.64
2023-08-25T09:53:16.231Z,38.28
2023-08-25T09:55:43.633Z,38.74
2023-08-25T09:58:13.315Z,38.58
2023-08-25T10:00:41.238Z,38.81
2023-08-25T10:03:10.379Z,38.82
2023-08-25T10:05:42.706Z,40.30
2023-08-25T10:08:10.561Z,40.80
2023-08-25T10:10:39.546Z,40.37
2023-08-25T10:13:08.991Z,40.73
2023-08-25T10:15:38.431Z,41.17
2023-08-25T10:18:08.668Z,41.04
2023-08-25T10:20:37.326Z,41.02
2023-08-25T10:23:11.033Z,41.35
2023-08-25T10:25:39.573Z,41.82
2023-08-25T10:28:09.414Z,42.51
2023-08-25T10:30:37.181Z,42.45
2023-08-25T10:33:10.326Z,41.94
2023-08-25T10:35:50.538Z,42.06
2023-08-25T10:38:20.519Z,41.48
2023-08-25T10:40:55.118Z,41.98
2023-08-25T10:43:33.652Z,42.14
2023-08-25T10:46:08.603Z,42.72
2023-08-25T10:48:37.689Z,42.38
2023-08-25T10:51:12.038Z,42.37
2023-08-25T10:53:43.258Z,42.67
2023-08-25T10:56:18.292Z,42.89
2023-08-25T10:59:06.586Z,42.80
2023-08-25T11:01:58.953Z,42.75
2023-08-25T11:04:28.995Z,43.53
2023-08-25T11:07:00.289Z,43.20
2023-08-25T11:09:53.283Z,43.28
2023-08-25T11:12:26.046Z,43.27
2023-08-25T11:14:52.871Z,43.32
2023-08-25T11:17:19.717Z,43.08
2023-08-25T11:19:47.100Z,42.81
2023-08-25T11:22:14.026Z,43.05
2023-08-25T11:24:41.154Z,42.81
2023-08-25T11:27:12.044Z,42.94
2023-08-25T11:29:46.156Z,43.58
2023-08-25T11:32:14.551Z,43.96
2023-08-25T11:34:41.681Z,43.65
2023-08-25T11:37:13.183Z,43.49
2023-08-25T11:39:43.820Z,43.61
2023-08-25T11:42:10.834Z,44.29
2023-08-25T11:44:44.522Z,43.84
2023-08-25T11:47:11.526Z,44.64
2023-08-25T11:49:40.045Z,43.83
2023-08-25T11:52:08.009Z,43.24
2023-08-25T11:54:50.738Z,43.58
2023-08-25T11:57:18.306Z,43.61
2023-08-25T11:59:48.704Z,44.12
2023-08-25T12:02:19.584Z,44.34
2023-08-25T12:05:12.446Z,44.34
2023-08-25T12:07:39.251Z,45.08
2023-08-25T12:10:06.495Z,45.06
2023-08-25T12:12:39.333Z,44.76
2023-08-25T12:15:10.130Z,44.45
2023-08-25T12:17:38.003Z,44.18
2023-08-25T12:20:18.825Z,44.52
2023-08-25T12:22:52.321Z,44.83
2023-08-25T12:25:19.162Z,44.97
2023-08-25T12:27:46.021Z,44.64
2023-08-25T12:30:13.370Z,44.07
2023-08-25T12:32:40.667Z,44.58
2023-08-25T12:35:07.779Z,44.44
2023-08-25T12:37:34.665Z,44.22
2023-08-25T12:40:01.525Z,44.30
2023-08-25T12:42:28.402Z,44.58
2023-08-25T12:44:55.168Z,44.07
2023-08-25T12:47:21.956Z,44.37
2023-08-25T12:49:48.831Z,44.27
2023-08-25T12:52:18.157Z,44.64
2023-08-25T12:54:45.131Z,44.74
2023-08-25T12:57:11.894Z,44.12
2023-08-25T12:59:39.550Z,44.30
2023-08-25T13:02:06.740Z,42.78
2023-08-25T13:04:33.508Z,44.28
2023-08-25T13:07:00.401Z,44.03
2023-08-25T13:09:27.170Z,44.52
2023-08-25T13:11:53.959Z,44.04
2023-08-25T13:14:21.590Z,44.58
2023-08-25T13:16:48.416Z,43.87
2023-08-25T13:19:15.425Z,44.15
2023-08-25T13:21:42.259Z,44.48
2023-08-25T13:24:09.904Z,44.42
2023-08-25T13:26:37.403Z,44.55
2023-08-25T13:29:04.960Z,43.86
2023-08-25T13:31:32.095Z,42.84
2023-08-25T13:33:58.927Z,43.39
2023-08-25T13:36:25.747Z,43.75
2023-08-25T13:38:52.529Z,43.01
2023-08-25T13:41:19.628Z,43.28
2023-08-25T13:43:46.481Z,43.57
2023-08-25T13:46:13.422Z,43.69
2023-08-25T13:48:40.346Z,43.07
2023-08-25T13:51:07.199Z,42.15
2023-08-25T13:53:34.075Z,42.25
2023-08-25T13:56:02.223Z,41.90
2023-08-25T13:58:29.735Z,41.07
2023-08-25T14:00:56.562Z,40.45
2023-08-25T14:03:25.623Z,40.67
2023-08-25T14:05:52.651Z,40.75
2023-08-25T14:08:19.592Z,40.42
2023-08-25T14:10:46.442Z,40.72
2023-08-25T14:13:13.319Z,39.93
2023-08-25T14:15:40.151Z,39.61
2023-08-25T14:18:07.482Z,39.15
2023-08-25T14:20:34.365Z,39.16
2023-08-25T14:23:04.019Z,39.05
2023-08-25T14:25:31.337Z,38.67
2023-08-25T14:28:00.364Z,38.46
2023-08-25T14:30:27.352Z,37.25
2023-08-25T14:32:54.253Z,36.62
2023-08-25T14:35:21.094Z,36.15
2023-08-25T14:37:47.870Z,35.41
2023-08-25T14:40:14.715Z,35.59
2023-08-25T14:42:41.515Z,35.37
2023-08-25T14:45:08.937Z,34.96
2023-08-25T14:47:35.948Z,34.34
2023-08-25T14:50:02.792Z,34.37
2023-08-25T14:52:30.118Z,34.41
2023-08-25T14:54:57.061Z,34.33
2023-08-25T14:57:23.873Z,34.14
2023-08-25T14:59:51.978Z,33.85
2023-08-25T15:02:19.403Z,33.88
2023-08-25T15:04:46.320Z,33.59
2023-08-25T15:07:13.136Z,33.50
2023-08-25T15:09:42.793Z,33.21
2023-08-25T15:12:09.639Z,33.03
2023-08-25T15:14:36.460Z,32.88
2023-08-25T15:17:03.354Z,33.02
2023-08-25T15:19:30.148Z,33.02
2023-08-25T15:21:57.012Z,33.04
2023-08-25T15:24:23.777Z,32.81
2023-08-25T15:26:50.579Z,32.79
2023-08-25T15:29:17.390Z,32.73
2023-08-25T15:31:44.295Z,32.78
2023-08-25T15:34:11.538Z,32.79
2023-08-25T15:36:38.479Z,32.68
2023-08-25T15:39:05.499Z,32.56
2023-08-25T15:41:37.557Z,32.34
2023-08-25T15:44:05.033Z,32.29
2023-08-25T15:46:31.857Z,32.02
2023-08-25T15:48:58.825Z,32.06
2023-08-25T15:51:25.704Z,32.06
2023-08-25T15:53:52.465Z,32.25
2023-08-25T15:56:19.624Z,32.18
2023-08-25T15:58:46.477Z,32.23
2023-08-25T16:01:13.628Z,32.12
2023-08-25T16:03:40.672Z,31.66
2023-08-25T16:06:08.442Z,31.54
2023-08-25T16:08:35.255Z,31.40
2023-08-25T16:11:03.905Z,31.22
2023-08-25T16:13:31.517Z,31.07
2023-08-25T16:15:59.169Z,30.83
2023-08-25T16:18:26.276Z,30.73
2023-08-25T16:20:53.449Z,30.61
2023-08-25T16:23:20.528Z,30.38
2023-08-25T16:25:47.466Z,30.27
2023-08-25T16:28:14.327Z,30.16
2023-08-25T16:30:41.228Z,30.09
2023-08-25T16:33:08.175Z,30.08
2023-08-25T16:35:35.122Z,29.91
2023-08-25T16:38:04.468Z,29.80
2023-08-25T16:40:31.348Z,29.82
2023-08-25T16:43:01.112Z,29.69
2023-08-25T16:45:29.114Z,29.63
2023-08-25T16:47:57.524Z,29.57
2023-08-25T16:50:25.769Z,29.57
2023-08-25T16:52:53.004Z,29.53
2023-08-25T16:55:20.155Z,29.44
2023-08-25T16:57:47.037Z,29.28
2023-08-25T17:00:14.310Z,29.31
2023-08-25T17:02:41.196Z,29.34
2023-08-25T17:05:08.370Z,29.34
2023-08-25T17:07:49.991Z,29.21
2023-08-25T17:10:18.246Z,29.18
2023-08-25T17:12:45.830Z,29.18
2023-08-25T17:15:14.707Z,29.04
2023-08-25T17:17:41.541Z,29.02
2023-08-25T17:20:11.149Z,29.02
2023-08-25T17:22:39.355Z,28.96
2023-08-25T17:25:12.393Z,28.76
2023-08-25T17:27:40.637Z,28.64
2023-08-25T17:30:11.878Z,28.56
2023-08-25T17:32:40.239Z,28.50
2023-08-25T17:35:07.461Z,28.49
2023-08-25T17:37:34.359Z,28.16
2023-08-25T17:40:02.253Z,28.10
2023-08-25T17:42:29.377Z,28.03
2023-08-25T17:44:56.839Z,27.91
2023-08-25T17:47:24.502Z,27.73
2023-08-25T17:49:53.035Z,27.73
2023-08-25T17:52:20.025Z,27.67
2023-08-25T17:54:46.801Z,27.64
2023-08-25T17:57:15.719Z,27.77
2023-08-25T17:59:43.250Z,27.64
2023-08-25T18:02:11.378Z,27.50
2023-08-25T18:04:39.749Z,27.54
2023-08-25T18:07:07.189Z,27.47
2023-08-25T18:09:34.185Z,27.32
2023-08-25T18:12:04.013Z,27.39
2023-08-25T18:14:30.799Z,27.37
2023-08-25T18:16:57.655Z,27.25
2023-08-25T18:19:24.470Z,27.15
2023-08-25T18:21:51.426Z,27.08
2023-08-25T18:24:18.383Z,27.01
2023-08-25T18:26:45.345Z,27.02
2023-08-25T18:29:12.543Z,27.02
2023-08-25T18:31:39.618Z,27.02
2023-08-25T18:34:06.963Z,26.93
2023-08-25T18:36:33.944Z,26.86
2023-08-25T18:39:01.535Z,26.87
2023-08-25T18:41:28.576Z,26.74
2023-08-25T18:43:55.772Z,26.64
2023-08-25T18:46:23.040Z,26.58
2023-08-25T18:48:49.978Z,26.58
2023-08-25T18:51:16.959Z,26.59
2023-08-25T18:53:43.873Z,26.41
2023-08-25T18:56:12.750Z,26.46
2023-08-25T18:58:39.850Z,26.36
2023-08-25T19:01:06.882Z,26.37
2023-08-25T19:03:33.836Z,26.32
2023-08-25T19:06:05.063Z,26.30
2023-08-25T19:08:32.984Z,26.35
2023-08-25T19:11:00.611Z,26.36
2023-08-25T19:13:28.673Z,26.31
2023-08-25T19:15:57.212Z,26.25
2023-08-25T19:18:24.462Z,26.23
2023-08-25T19:20:51.329Z,26.25
2023-08-25T19:23:18.414Z,26.28
2023-08-25T19:25:52.980Z,26.14
2023-08-25T19:28:20.021Z,26.15
2023-08-25T19:30:47.576Z,26.16
2023-08-25T19:33:14.913Z,26.18
2023-08-25T19:35:42.491Z,26.24
2023-08-25T19:38:10.705Z,26.32
2023-08-25T19:40:37.631Z,26.38
2023-08-25T19:43:04.635Z,26.45
2023-08-25T19:45:31.494Z,26.57
2023-08-25T19:47:58.395Z,26.57
2023-08-25T19:50:25.516Z,26.51
2023-08-25T19:52:52.455Z,26.47
2023-08-25T19:55:19.271Z,26.52
2023-08-25T19:57:46.115Z,26.56
2023-08-25T20:00:13.700Z,26.62
2023-08-25T20:02:40.816Z,26.82
2023-08-25T20:05:08.494Z,26.84
2023-08-25T20:07:36.266Z,26.69
2023-08-25T20:10:06.118Z,26.56
2023-08-25T20:12:37.080Z,25.63
2023-08-25T20:15:04.177Z,25.07
2023-08-25T20:17:31.009Z,24.70
2023-08-25T20:19:57.816Z,23.76
2023-08-25T20:22:24.618Z,22.54
2023-08-25T20:24:51.411Z,22.32
2023-08-25T20:27:18.216Z,21.94
2023-08-25T20:29:45.066Z,21.67
2023-08-25T20:32:13.093Z,21.54
2023-08-25T20:34:39.904Z,21.21
2023-08-25T20:37:06.714Z,21.09
2023-08-25T20:39:33.500Z,20.85
2023-08-25T20:42:00.316Z,20.72
2023-08-25T20:44:27.148Z,20.66
2023-08-25T20:46:53.969Z,20.55
2023-08-25T20:49:20.764Z,20.45
2023-08-25T20:51:47.577Z,20.38
2023-08-25T20:54:14.448Z,20.40
2023-08-25T20:56:41.225Z,20.50
2023-08-25T20:59:08.016Z,20.18
2023-08-25T21:01:35.301Z,20.18
2023-08-25T21:04:02.370Z,20.08
2023-08-25T21:06:33.951Z,20.19
2023-08-25T21:09:01.002Z,20.26
2023-08-25T21:11:28.926Z,20.26
2023-08-25T21:13:58.334Z,20.25
2023-08-25T21:16:26.163Z,20.27
2023-08-25T21:18:53.095Z,20.19
2023-08-25T21:21:20.026Z,20.22
2023-08-25T21:23:48.823Z,20.13
2023-08-25T21:26:15.669Z,20.12
2023-08-25T21:28:43.128Z,20.21
2023-08-25T21:31:09.951Z,20.24
2023-08-25T21:33:36.808Z,20.34
2023-08-25T21:36:04.260Z,20.19
2023-08-25T21:38:31.920Z,20.12
2023-08-25T21:41:00.292Z,20.13
2023-08-25T21:43:27.981Z,20.18
2023-08-25T21:45:54.850Z,20.13
2023-08-25T21:48:21.699Z,20.16
2023-08-25T21:50:48.692Z,20.12
2023-08-25T21:53:15.496Z,20.28
2023-08-25T21:55:44.238Z,20.28
2023-08-25T21:58:11.193Z,20.17
2023-08-25T22:00:39.217Z,20.09
2023-08-25T22:03:06.122Z,20.06
2023-08-25T22:05:32.983Z,20.12
2023-08-25T22:07:59.775Z,20.08
2023-08-25T22:10:26.666Z,20.15
2023-08-25T22:12:54.749Z,20.21
2023-08-25T22:15:22.758Z,20.14
2023-08-25T22:17:49.616Z,20.25
2023-08-25T22:20:16.564Z,20.36
2023-08-25T22:22:43.441Z,20.41
2023-08-25T22:25:10.639Z,20.49
2023-08-25T22:27:38.494Z,20.63
2023-08-25T22:30:05.950Z,20.62
2023-08-25T22:35:03.959Z,20.68
2023-08-25T22:37:30.825Z,20.75
2023-08-25T22:39:57.671Z,20.79
2023-08-25T22:42:24.447Z,20.83
2023-08-25T22:44:51.641Z,20.87
2023-08-25T22:47:18.513Z,20.92
2023-08-25T22:49:45.285Z,20.85
2023-08-25T22:52:12.096Z,20.84
2023-08-25T22:54:38.905Z,20.89
2023-08-25T22:57:05.699Z,20.67
2023-08-25T22:59:32.554Z,20.66
2023-08-25T23:02:01.168Z,20.54
2023-08-25T23:04:28.923Z,20.56
2023-08-25T23:06:55.723Z,20.57
2023-08-25T23:09:22.598Z,20.58
2023-08-25T23:11:49.437Z,20.59
2023-08-25T23:14:16.315Z,20.65
2023-08-25T23:16:43.116Z,20.82
2023-08-25T23:19:10.112Z,20.70
2023-08-25T23:21:37.013Z,20.63
2023-08-25T23:24:04.077Z,20.62
2023-08-25T23:26:30.936Z,20.54
2023-08-25T23:28:57.747Z,20.49
2023-08-25T23:31:24.560Z,20.52
2023-08-25T23:33:51.323Z,20.51
2023-08-25T23:36:18.123Z,20.48
2023-08-25T23:38:44.866Z,20.45
2023-08-25T23:41:11.800Z,20.45
2023-08-25T23:43:38.616Z,20.36
2023-08-25T23:46:07.719Z,20.34
2023-08-25T23:48:35.663Z,20.32
2023-08-25T23:51:02.559Z,20.30
2023-08-25T23:53:29.327Z,20.35
2023-08-25T23:55:56.308Z,20.32
2023-08-25T23:58:23.063Z,20.25
